Time;durP1;ratioP1;P1;durP2;ratioP2;P2;SDS_P1;SDS_P2;PMS_P1;PMS_P2;Temp;Humidity;BMP_temperature;BMP_pressure;BME280_temperature;BME280_humidity;BME280_pressure;Samples;Min_cycle;Max_cycle;Signal;HPM_P1;HPM_P2
2024/02/22 00:02:17;;;;;;;2.10;0.90;;;16.10;99.90;;;;;;5009660;28;20100;-76
2024/02/22 00:04:44;;;;;;;0.82;0.82;;;16.10;99.90;;;;;;5012108;28;20136;-75
2024/02/22 00:07:14;;;;;;;1.10;0.80;;;16.10;99.90;;;;;;5003206;28;20036;-75
2024/02/22 00:09:40;;;;;;;1.00;0.95;;;16.10;99.90;;;;;;5007701;28;20049;-74
2024/02/22 00:12:06;;;;;;;2.67;1.23;;;16.10;99.90;;;;;;5003391;28;20107;-75
2024/02/22 00:14:34;;;;;;;0.70;0.70;;;16.10;99.90;;;;;;4993316;28;20054;-77
2024/02/22 00:17:00;;;;;;;2.05;0.90;;;16.10;99.90;;;;;;5005186;28;20029;-75
2024/02/22 00:19:27;;;;;;;0.73;0.73;;;16.10;99.90;;;;;;5011527;28;20053;-75
2024/02/22 00:21:53;;;;;;;;;;;16.10;99.90;;;;;;5005869;28;20038;-77
2024/02/22 00:24:18;;;;;;;0.90;0.90;;;16.00;99.90;;;;;;5012548;28;19905;-75
2024/02/22 00:26:45;;;;;;;0.70;0.70;;;16.00;99.90;;;;;;5009032;28;20109;-75
2024/02/22 00:29:11;;;;;;;1.27;1.00;;;16.00;99.90;;;;;;5004941;28;20029;-74
2024/02/22 00:31:37;;;;;;;1.08;0.63;;;16.00;99.90;;;;;;5006990;28;20128;-75
2024/02/22 00:34:03;;;;;;;1.20;0.70;;;16.00;99.90;;;;;;5000275;28;20132;-75
2024/02/22 00:36:28;;;;;;;1.00;0.90;;;16.00;99.90;;;;;;5007924;28;20048;-75
2024/02/22 00:38:54;;;;;;;1.30;0.80;;;16.00;99.90;;;;;;5005910;28;20030;-74
2024/02/22 00:41:20;;;;;;;0.80;0.77;;;16.00;99.90;;;;;;4997116;28;20117;-75
2024/02/22 00:43:46;;;;;;;1.10;0.80;;;16.00;99.90;;;;;;5000740;28;20041;-75
2024/02/22 00:46:11;;;;;;;1.00;0.83;;;16.00;99.90;;;;;;5005957;28;20191;-74
2024/02/22 00:48:37;;;;;;;1.07;0.70;;;16.00;99.90;;;;;;5007724;28;20026;-75
2024/02/22 00:51:03;;;;;;;1.13;0.83;;;16.00;99.90;;;;;;4999193;28;20035;-75
2024/02/22 00:53:28;;;;;;;1.30;0.87;;;16.00;99.90;;;;;;4994929;28;20026;-75
2024/02/22 00:55:54;;;;;;;1.17;0.97;;;16.00;99.90;;;;;;5003028;28;20113;-75
2024/02/22 00:58:20;;;;;;;1.63;0.90;;;16.00;99.90;;;;;;5003690;28;20064;-75
2024/02/22 01:00:46;;;;;;;0.60;0.60;;;16.00;99.90;;;;;;4997265;28;20541;-76
2024/02/22 01:03:11;;;;;;;0.83;0.70;;;16.00;99.90;;;;;;5008657;28;20030;-74
2024/02/22 01:05:37;;;;;;;0.93;0.70;;;16.00;99.90;;;;;;5000507;28;20030;-74
2024/02/22 01:08:04;;;;;;;0.70;0.70;;;16.00;99.90;;;;;;4996113;28;20527;-74
2024/02/22 01:10:30;;;;;;;1.02;0.90;;;16.00;99.90;;;;;;4994929;28;20037;-75
2024/02/22 01:12:55;;;;;;;2.60;0.82;;;16.00;99.90;;;;;;5009870;28;20341;-75
2024/02/22 01:15:21;;;;;;;2.27;0.80;;;16.00;99.90;;;;;;5010286;28;20455;-76
2024/02/22 01:17:47;;;;;;;1.43;0.80;;;16.00;99.90;;;;;;4997533;28;20023;-75
2024/02/22 01:20:13;;;;;;;0.73;0.70;;;16.00;99.90;;;;;;5004149;28;20093;-75
2024/02/22 01:22:39;;;;;;;0.60;0.60;;;16.00;99.90;;;;;;4992241;28;20069;-74
2024/02/22 01:25:05;;;;;;;1.10;1.00;;;15.90;99.90;;;;;;5009688;28;20026;-76
2024/02/22 01:27:31;;;;;;;0.60;0.50;;;16.00;99.90;;;;;;5004739;28;20040;-75
2024/02/22 01:29:57;;;;;;;0.97;0.93;;;16.00;99.90;;;;;;4996862;28;20116;-75
2024/02/22 01:32:23;;;;;;;0.93;0.77;;;15.90;99.90;;;;;;4992869;28;20436;-74
2024/02/22 01:34:48;;;;;;;0.80;0.80;;;15.90;99.90;;;;;;5004710;28;20049;-76
2024/02/22 01:37:14;;;;;;;0.57;0.57;;;15.90;99.90;;;;;;5005684;28;20025;-74
2024/02/22 01:39:40;;;;;;;0.73;0.73;;;15.90;99.90;;;;;;4997347;28;20026;-76
2024/02/22 01:42:06;;;;;;;1.10;0.80;;;15.90;99.90;;;;;;4997965;28;20034;-75
2024/02/22 01:44:32;;;;;;;0.77;0.63;;;15.90;99.90;;;;;;4996113;28;20057;-75
2024/02/22 01:46:58;;;;;;;0.80;0.80;;;15.90;99.90;;;;;;5002983;28;20408;-77
2024/02/22 01:49:24;;;;;;;0.90;0.60;;;15.90;99.90;;;;;;5024421;28;20061;-75
2024/02/22 01:51:57;;;;;;;1.17;0.80;;;15.90;99.90;;;;;;5007505;28;20057;-75
2024/02/22 01:54:24;;;;;;;1.00;1.00;;;15.90;99.90;;;;;;5003694;28;20483;-75
2024/02/22 01:56:50;;;;;;;1.00;0.70;;;15.90;99.90;;;;;;4995862;28;20447;-76
2024/02/22 01:59:16;;;;;;;0.77;0.77;;;15.90;99.90;;;;;;4996475;28;20399;-76
2024/02/22 02:01:42;;;;;;;0.70;0.70;;;15.90;99.90;;;;;;4997685;28;20482;-74
2024/02/22 02:04:12;;;;;;;1.00;0.73;;;15.90;99.90;;;;;;5001498;28;20033;-75
2024/02/22 02:06:38;;;;;;;1.55;0.65;;;15.90;99.90;;;;;;4991498;28;20471;-75
2024/02/22 02:09:04;;;;;;;0.57;0.57;;;15.90;99.90;;;;;;5002312;28;20046;-74
2024/02/22 02:11:32;;;;;;;0.77;0.77;;;15.90;99.90;;;;;;4998795;28;20171;-75
2024/02/22 02:13:58;;;;;;;0.90;0.52;;;15.80;99.90;;;;;;5010674;28;20121;-75
2024/02/22 02:16:24;;;;;;;0.70;0.60;;;15.80;99.90;;;;;;4998402;28;20184;-74
2024/02/22 02:18:50;;;;;;;0.80;0.80;;;15.80;99.90;;;;;;4995735;28;20027;-75
2024/02/22 02:21:28;;;;;;;1.30;1.00;;;15.80;99.90;;;;;;5007871;28;20057;-75
2024/02/22 02:24:06;;;;;;;1.77;0.80;;;15.80;99.90;;;;;;5025246;28;20106;-74
2024/02/22 02:26:32;;;;;;;0.65;0.65;;;15.80;99.90;;;;;;5002248;28;20029;-76
2024/02/22 02:28:57;;;;;;;0.80;0.80;;;15.80;99.90;;;;;;5003470;28;20049;-75
2024/02/22 02:31:23;;;;;;;0.73;0.73;;;15.80;99.90;;;;;;5000599;28;20080;-76
2024/02/22 02:33:49;;;;;;;0.60;0.60;;;15.80;99.90;;;;;;5003418;28;20045;-75
2024/02/22 02:36:14;;;;;;;0.73;0.73;;;15.90;99.90;;;;;;5004795;28;20095;-76
2024/02/22 02:38:40;;;;;;;1.40;0.90;;;15.80;99.90;;;;;;4998914;28;20031;-76
2024/02/22 02:41:06;;;;;;;0.70;0.70;;;15.80;99.90;;;;;;5008179;28;20045;-75
2024/02/22 02:43:32;;;;;;;0.97;0.70;;;15.80;99.90;;;;;;5001432;28;20030;-76
2024/02/22 02:45:57;;;;;;;0.80;0.50;;;15.80;99.90;;;;;;5009046;28;20029;-75
2024/02/22 02:48:23;;;;;;;0.50;0.50;;;15.80;99.90;;;;;;5004498;28;20030;-74
2024/02/22 02:50:49;;;;;;;2.67;0.50;;;15.80;99.90;;;;;;5001444;28;20029;-75
2024/02/22 02:53:14;;;;;;;1.23;0.90;;;15.80;99.90;;;;;;5000427;28;20571;-76
2024/02/22 02:55:40;;;;;;;1.00;0.70;;;15.80;99.90;;;;;;5004727;28;20033;-75
2024/02/22 02:58:08;;;;;;;2.43;0.60;;;15.80;99.90;;;;;;5008535;28;20117;-75
2024/02/22 03:00:34;;;;;;;0.90;0.60;;;15.80;99.90;;;;;;5007704;28;20475;-75
2024/02/22 03:03:00;;;;;;;2.63;0.90;;;15.80;99.90;;;;;;5002006;28;20026;-74
2024/02/22 03:05:26;;;;;;;1.50;0.85;;;15.80;99.90;;;;;;5001104;28;20036;-76
2024/02/22 03:07:53;;;;;;;1.67;0.70;;;15.80;99.90;;;;;;4998120;28;20046;-75
2024/02/22 03:10:19;;;;;;;;;;;15.80;99.90;;;;;;4993982;28;20092;-75
2024/02/22 03:12:44;;;;;;;1.90;0.68;;;15.80;99.90;;;;;;5010467;28;19909;-74
2024/02/22 03:15:10;;;;;;;1.30;0.87;;;15.70;99.90;;;;;;5001667;28;20031;-75
2024/02/22 03:17:36;;;;;;;2.10;0.50;;;15.80;99.90;;;;;;4999899;28;20042;-75
2024/02/22 03:20:09;;;;;;;1.35;0.60;;;15.80;99.90;;;;;;4999795;28;20042;-76
2024/02/22 03:22:39;;;;;;;1.33;0.90;;;15.80;99.90;;;;;;5003173;28;20308;-75
2024/02/22 03:25:07;;;;;;;1.08;0.70;;;15.80;99.90;;;;;;5008442;28;20033;-76
2024/02/22 03:27:33;;;;;;;4.80;0.70;;;15.80;99.90;;;;;;5000370;28;20026;-74
2024/02/22 03:29:59;;;;;;;2.30;0.80;;;15.80;99.90;;;;;;5011476;28;20133;-75
2024/02/22 03:32:25;;;;;;;1.88;0.95;;;15.80;99.90;;;;;;4995417;28;20042;-76
2024/02/22 03:34:51;;;;;;;4.47;1.00;;;15.70;99.90;;;;;;4999093;28;20109;-75
2024/02/22 03:37:17;;;;;;;3.57;1.20;;;15.70;99.90;;;;;;4995081;28;20117;-76
2024/02/22 03:39:49;;;;;;;3.70;0.65;;;15.80;99.90;;;;;;5006840;28;20041;-74
2024/02/22 03:42:18;;;;;;;2.10;0.90;;;15.70;99.90;;;;;;5000122;28;20030;-75
2024/02/22 03:44:43;;;;;;;0.98;0.70;;;15.80;99.90;;;;;;5002481;28;20030;-75
2024/02/22 03:47:11;;;;;;;2.97;1.20;;;15.70;99.90;;;;;;5007654;28;20490;-76
2024/02/22 03:49:37;;;;;;;4.68;1.00;;;15.70;99.90;;;;;;5004266;28;20048;-75
2024/02/22 03:52:04;;;;;;;2.95;0.90;;;15.70;99.90;;;;;;5003638;28;20537;-75
2024/02/22 03:54:31;;;;;;;1.70;0.70;;;15.80;99.90;;;;;;5007631;28;20060;-77
2024/02/22 03:56:57;;;;;;;1.30;0.93;;;15.70;99.90;;;;;;5010322;28;20463;-74
2024/02/22 03:59:23;;;;;;;2.08;0.80;;;15.70;99.90;;;;;;5001535;28;20033;-75
2024/02/22 04:01:52;;;;;;;2.50;0.80;;;15.70;99.90;;;;;;4999785;28;20073;-75
2024/02/22 04:04:18;;;;;;;2.40;0.98;;;15.70;99.90;;;;;;4996621;28;20033;-74
2024/02/22 04:06:44;;;;;;;4.67;0.70;;;15.70;99.90;;;;;;4995240;28;20034;-77
2024/02/22 04:09:10;;;;;;;4.05;1.23;;;15.70;99.90;;;;;;4994822;28;20041;-75
2024/02/22 04:11:36;;;;;;;3.97;1.17;;;15.70;99.90;;;;;;4997720;28;20038;-74
2024/02/22 04:14:02;;;;;;;4.17;0.70;;;15.70;99.90;;;;;;5009985;28;20124;-75
2024/02/22 04:16:28;;;;;;;5.77;1.20;;;15.70;99.90;;;;;;4995075;28;20442;-75
2024/02/22 04:18:53;;;;;;;4.07;1.20;;;15.70;99.90;;;;;;4998549;28;20045;-75
2024/02/22 04:21:19;;;;;;;3.80;1.20;;;15.60;99.90;;;;;;4999658;28;20505;-74
2024/02/22 04:23:45;;;;;;;3.27;1.10;;;15.60;99.90;;;;;;4995442;28;20069;-75
2024/02/22 04:26:11;;;;;;;3.77;1.33;;;15.60;99.90;;;;;;4993982;28;20038;-77
2024/02/22 04:28:37;;;;;;;7.83;1.33;;;15.60;99.90;;;;;;4996191;28;20133;-75
2024/02/22 04:31:04;;;;;;;2.45;0.95;;;15.60;99.90;;;;;;4998251;28;20460;-75
2024/02/22 04:33:30;;;;;;;2.33;1.25;;;15.60;99.90;;;;;;4994830;28;20472;-75
2024/02/22 04:35:56;;;;;;;14.05;1.60;;;15.60;99.90;;;;;;4999156;28;20117;-75
2024/02/22 04:38:22;;;;;;;3.43;1.13;;;15.60;99.90;;;;;;4999406;28;20129;-76
2024/02/22 04:40:48;;;;;;;2.88;0.82;;;15.60;99.90;;;;;;5005652;28;20479;-75
2024/02/22 04:43:14;;;;;;;2.95;1.08;;;15.60;99.90;;;;;;4996779;28;20392;-76
2024/02/22 04:45:40;;;;;;;3.40;1.10;;;15.60;99.90;;;;;;4999426;28;20030;-77
2024/02/22 04:48:06;;;;;;;2.63;1.03;;;15.60;99.90;;;;;;4994965;28;20268;-75
2024/02/22 04:50:35;;;;;;;6.28;0.95;;;15.60;99.90;;;;;;5004437;28;20030;-75
2024/02/22 04:53:04;;;;;;;3.13;0.90;;;15.50;99.90;;;;;;4995960;28;20030;-75
2024/02/22 04:55:31;;;;;;;4.55;1.90;;;15.50;99.90;;;;;;4996343;28;20041;-76
2024/02/22 04:57:59;;;;;;;5.90;1.33;;;15.60;99.90;;;;;;4994563;28;20045;-75
2024/02/22 05:00:25;;;;;;;5.00;1.20;;;15.50;99.90;;;;;;4999505;28;20041;-75
2024/02/22 05:02:51;;;;;;;5.22;0.88;;;15.50;99.90;;;;;;4999510;28;20108;-75
2024/02/22 05:05:17;;;;;;;4.27;1.20;;;15.50;99.90;;;;;;4995736;28;20058;-75
2024/02/22 05:07:43;;;;;;;4.07;1.07;;;15.50;99.90;;;;;;4999599;28;20060;-75
2024/02/22 05:10:09;;;;;;;4.53;1.50;;;15.50;99.90;;;;;;5005754;28;20479;-74
2024/02/22 05:12:35;;;;;;;2.25;1.00;;;15.50;99.90;;;;;;5001036;28;20030;-74
2024/02/22 05:15:02;;;;;;;3.78;0.93;;;15.50;99.90;;;;;;4998648;28;20388;-74
2024/02/22 05:17:28;;;;;;;3.25;1.20;;;15.50;99.90;;;;;;4991168;28;20116;-74
2024/02/22 05:19:53;;;;;;;2.90;0.93;;;15.50;99.90;;;;;;4993867;28;20500;-75
2024/02/22 05:22:19;;;;;;;3.93;0.90;;;15.50;99.90;;;;;;4991993;28;20048;-74
2024/02/22 05:24:45;;;;;;;5.20;1.10;;;15.50;99.90;;;;;;4995885;28;20030;-77
2024/02/22 05:27:11;;;;;;;2.23;0.63;;;15.50;99.90;;;;;;4993160;28;20141;-75
2024/02/22 05:29:37;;;;;;;8.80;1.87;;;15.50;99.90;;;;;;4997927;28;20037;-75
2024/02/22 05:32:04;;;;;;;8.80;1.67;;;15.50;99.90;;;;;;4995436;28;20500;-76
2024/02/22 05:34:30;;;;;;;6.88;1.85;;;15.40;99.90;;;;;;4997309;28;20037;-75
2024/02/22 05:36:56;;;;;;;4.13;1.33;;;15.50;99.90;;;;;;5004517;28;20510;-75
2024/02/22 05:39:22;;;;;;;2.93;1.03;;;15.40;99.90;;;;;;4994551;28;20034;-74
2024/02/22 05:41:48;;;;;;;4.90;1.00;;;15.40;99.90;;;;;;4995681;28;20053;-75
2024/02/22 05:44:16;;;;;;;4.15;1.10;;;15.40;99.90;;;;;;4997146;28;20029;-76
2024/02/22 05:46:42;;;;;;;7.05;1.20;;;15.50;99.90;;;;;;4991487;28;20060;-74
2024/02/22 05:49:08;;;;;;;5.53;1.58;;;15.40;99.90;;;;;;4993231;28;20648;-75
2024/02/22 05:51:34;;;;;;;2.80;0.90;;;15.40;99.90;;;;;;4999246;28;20125;-76
2024/02/22 05:54:00;;;;;;;5.33;1.53;;;15.40;99.90;;;;;;4994457;28;20034;-77
2024/02/22 05:56:26;;;;;;;6.27;1.30;;;15.40;99.90;;;;;;4992608;28;20102;-75
2024/02/22 05:58:51;;;;;;;2.53;1.00;;;15.40;99.90;;;;;;4998708;28;20041;-76
2024/02/22 06:01:17;;;;;;;6.83;1.60;;;15.40;99.90;;;;;;4993979;28;20296;-77
2024/02/22 06:03:43;;;;;;;4.87;1.13;;;15.40;99.90;;;;;;4991472;28;20055;-75
2024/02/22 06:06:09;;;;;;;4.80;1.30;;;15.40;99.90;;;;;;4993358;28;20022;-75
2024/02/22 06:08:35;;;;;;;5.40;1.67;;;15.30;99.90;;;;;;4995472;28;20342;-75
2024/02/22 06:11:02;;;;;;;5.17;1.10;;;15.30;99.90;;;;;;4990864;28;20048;-75
2024/02/22 06:13:28;;;;;;;2.60;1.42;;;15.30;99.90;;;;;;4997517;28;20026;-75
2024/02/22 06:15:53;;;;;;;3.57;1.13;;;15.30;99.90;;;;;;4993284;28;20495;-75
2024/02/22 06:18:19;;;;;;;3.93;0.93;;;15.30;99.90;;;;;;4993968;28;20475;-75
2024/02/22 06:20:45;;;;;;;5.53;1.30;;;15.30;99.90;;;;;;4994715;28;20038;-75
2024/02/22 06:23:11;;;;;;;10.73;1.80;;;15.30;99.90;;;;;;4999979;28;20030;-74
2024/02/22 06:25:38;;;;;;;6.28;1.50;;;15.20;99.90;;;;;;4991536;28;20523;-75
2024/02/22 06:28:04;;;;;;;5.53;1.20;;;15.20;99.90;;;;;;4992487;28;20026;-76
2024/02/22 06:30:29;;;;;;;2.30;0.95;;;15.30;99.90;;;;;;4992003;28;20519;-75
2024/02/22 06:32:55;;;;;;;7.10;1.70;;;15.30;99.90;;;;;;4995555;28;20030;-75
2024/02/22 06:35:21;;;;;;;7.00;1.67;;;15.30;99.90;;;;;;4995145;28;20089;-75
2024/02/22 06:37:48;;;;;;;6.85;1.60;;;15.20;99.90;;;;;;4992805;28;20034;-74
2024/02/22 06:40:14;;;;;;;;;;;15.30;99.90;;;;;;4993552;28;20046;-74
2024/02/22 06:42:41;;;;;;;4.95;1.33;;;15.20;99.90;;;;;;4991514;28;19910;-76
2024/02/22 06:45:08;;;;;;;4.63;1.20;;;15.20;99.90;;;;;;4997429;28;20050;-75
2024/02/22 06:47:34;;;;;;;4.65;1.35;;;15.20;99.90;;;;;;4994050;28;20106;-75
2024/02/22 06:50:00;;;;;;;5.43;1.33;;;15.30;99.90;;;;;;4996246;28;20034;-75
2024/02/22 06:52:25;;;;;;;6.70;1.07;;;15.20;99.90;;;;;;5001434;28;20030;-74
2024/02/22 06:54:51;;;;;;;2.73;1.43;;;15.20;99.90;;;;;;4993778;28;20031;-75
2024/02/22 06:57:17;;;;;;;6.27;1.40;;;15.20;99.90;;;;;;4991126;28;20033;-75
2024/02/22 06:59:43;;;;;;;8.20;1.38;;;15.20;99.90;;;;;;5004662;28;20049;-75
2024/02/22 07:02:11;;;;;;;4.23;1.87;;;15.30;99.90;;;;;;4988237;28;20150;-74
2024/02/22 07:04:37;;;;;;;5.68;1.27;;;15.30;99.90;;;;;;4992501;28;20480;-75
2024/02/22 07:07:03;;;;;;;6.87;1.57;;;15.30;99.90;;;;;;4996253;28;20041;-75
2024/02/22 07:09:29;;;;;;;7.10;1.90;;;15.30;99.90;;;;;;4996605;28;20678;-77
2024/02/22 07:11:57;;;;;;;4.83;1.30;;;15.30;99.90;;;;;;5001566;28;20050;-75
2024/02/22 07:14:23;;;;;;;6.97;1.30;;;15.30;99.90;;;;;;4993652;28;20096;-76
2024/02/22 07:16:50;;;;;;;2.78;1.17;;;15.30;99.90;;;;;;4998048;28;20484;-75
2024/02/22 07:19:16;;;;;;;5.32;1.48;;;15.30;99.90;;;;;;4995682;28;20095;-75
2024/02/22 07:21:42;;;;;;;4.37;1.13;;;15.30;99.90;;;;;;4994946;28;20451;-75
2024/02/22 07:24:08;;;;;;;7.87;1.20;;;15.30;99.90;;;;;;4992858;28;20030;-75
2024/02/22 07:26:34;;;;;;;8.57;1.53;;;15.30;99.90;;;;;;4994487;28;20137;-74
2024/02/22 07:28:59;;;;;;;6.68;1.30;;;15.30;99.90;;;;;;4993772;28;20137;-74
2024/02/22 07:31:26;;;;;;;6.07;1.30;;;15.30;99.90;;;;;;5001990;28;20108;-76
2024/02/22 07:33:53;;;;;;;5.38;1.88;;;15.30;99.90;;;;;;5000530;28;20057;-74
2024/02/22 07:36:18;;;;;;;5.15;1.38;;;15.30;99.90;;;;;;4996057;28;20472;-75
2024/02/22 07:38:46;;;;;;;4.03;1.50;;;15.30;99.90;;;;;;4996460;28;20060;-75
2024/02/22 07:41:15;;;;;;;4.35;1.73;;;15.30;99.90;;;;;;5000539;28;20556;-76
2024/02/22 07:43:45;;;;;;;6.65;1.17;;;15.20;99.90;;;;;;4995619;28;20033;-75
2024/02/22 07:46:11;;;;;;;3.35;1.15;;;15.20;99.90;;;;;;4998937;28;20027;-75
2024/02/22 07:48:41;;;;;;;5.30;1.33;;;15.20;99.90;;;;;;4995163;28;20128;-75
2024/02/22 07:51:08;;;;;;;5.97;1.60;;;15.30;99.90;;;;;;5001294;28;20038;-75
2024/02/22 07:53:34;;;;;;;3.58;1.38;;;15.20;99.90;;;;;;5006658;28;20026;-75
2024/02/22 07:56:11;;;;;;;7.65;1.70;;;15.20;99.90;;;;;;4995073;28;20379;-75
2024/02/22 07:58:56;;;;;;;4.80;1.40;;;15.20;99.90;;;;;;4996408;28;20042;-75
2024/02/22 08:01:22;;;;;;;4.32;1.40;;;15.20;99.90;;;;;;4993774;28;20101;-75
2024/02/22 08:03:53;;;;;;;5.43;1.57;;;15.20;99.90;;;;;;5000506;28;20479;-78
2024/02/22 08:06:19;;;;;;;8.40;1.60;;;15.30;99.90;;;;;;4998892;28;20065;-76
2024/02/22 08:08:46;;;;;;;4.57;1.30;;;15.40;99.90;;;;;;5009953;28;20050;-76
2024/02/22 08:11:12;;;;;;;38.10;11.55;;;15.50;99.90;;;;;;5007108;28;20175;-76
2024/02/22 08:13:37;;;;;;;65.13;26.50;;;15.50;99.90;;;;;;5003627;28;20482;-75
2024/02/22 08:16:05;;;;;;;68.27;26.10;;;15.60;99.90;;;;;;5011435;28;20449;-75
2024/02/22 08:18:33;;;;;;;16.20;7.45;;;15.60;99.90;;;;;;5007549;28;20044;-76
2024/02/22 08:20:58;;;;;;;26.00;9.40;;;15.60;99.90;;;;;;5003189;28;20472;-77
2024/02/22 08:23:24;;;;;;;30.30;21.37;;;15.70;99.90;;;;;;5004726;28;20146;-76
2024/02/22 08:25:49;;;;;;;136.63;116.33;;;15.70;99.90;;;;;;5003458;28;20095;-77
2024/02/22 08:28:15;;;;;;;24.00;17.67;;;15.70;99.90;;;;;;5009858;28;20026;-76
2024/02/22 08:30:41;;;;;;;32.23;20.10;;;15.80;99.90;;;;;;5004811;28;20550;-76
2024/02/22 08:33:07;;;;;;;29.07;16.63;;;15.80;99.90;;;;;;5003375;28;20113;-75
2024/02/22 08:35:32;;;;;;;157.97;140.53;;;15.70;99.90;;;;;;5003382;28;20226;-75
2024/02/22 08:37:58;;;;;;;45.57;37.53;;;15.80;99.90;;;;;;5010150;28;20446;-77
2024/02/22 08:40:24;;;;;;;39.73;32.77;;;15.80;99.90;;;;;;5009564;28;20087;-75
2024/02/22 08:42:50;;;;;;;40.97;32.50;;;15.80;99.90;;;;;;5010139;28;20097;-76
2024/02/22 08:45:17;;;;;;;40.03;30.77;;;15.80;99.90;;;;;;5010013;28;20746;-77
2024/02/22 08:47:43;;;;;;;;;;;15.80;99.90;;;;;;5009030;28;20025;-75
2024/02/22 08:50:09;;;;;;;;;;;15.80;99.90;;;;;;5010131;28;19913;-75
2024/02/22 08:52:40;;;;;;;56.50;40.15;;;15.80;99.90;;;;;;5008419;28;19905;-76
2024/02/22 08:55:08;;;;;;;37.08;24.27;;;15.80;99.90;;;;;;5007821;28;20137;-76
2024/02/22 08:57:34;;;;;;;33.15;23.77;;;15.80;99.90;;;;;;5002044;28;20373;-76
2024/02/22 09:00:00;;;;;;;35.23;24.70;;;15.80;99.90;;;;;;5004830;28;20037;-79
2024/02/22 09:02:25;;;;;;;33.57;23.00;;;15.90;99.90;;;;;;5004023;28;20144;-78
2024/02/22 09:04:51;;;;;;;29.00;22.00;;;15.90;99.90;;;;;;5009473;28;20033;-78
2024/02/22 09:07:17;;;;;;;27.73;20.73;;;15.90;99.90;;;;;;5010386;28;20041;-79
2024/02/22 09:09:45;;;;;;;30.80;21.10;;;16.00;99.90;;;;;;5012602;28;20057;-77
2024/02/22 09:12:12;;;;;;;33.55;19.75;;;16.00;99.90;;;;;;5008943;28;20084;-78
2024/02/22 09:14:38;;;;;;;80.32;48.45;;;16.10;99.90;;;;;;5009613;28;20030;-78
2024/02/22 09:17:04;;;;;;;44.00;26.43;;;16.10;99.90;;;;;;5007655;28;20463;-78
2024/02/22 09:19:30;;;;;;;37.80;22.73;;;16.10;99.90;;;;;;5010920;28;20657;-77
2024/02/22 09:21:59;;;;;;;34.17;21.60;;;16.10;99.90;;;;;;5002149;28;20053;-77
2024/02/22 09:24:25;;;;;;;28.95;20.27;;;16.10;99.90;;;;;;5008732;28;20076;-77
2024/02/22 09:26:51;;;;;;;29.20;19.70;;;16.30;99.90;;;;;;5002813;28;20042;-78
2024/02/22 09:29:16;;;;;;;30.20;18.90;;;16.70;99.90;;;;;;5009212;28;20087;-78
2024/02/22 09:31:42;;;;;;;24.17;18.30;;;17.10;99.90;;;;;;5005797;28;20387;-78
2024/02/22 09:34:08;;;;;;;26.53;18.60;;;17.30;99.90;;;;;;5010019;28;20049;-77
2024/02/22 09:36:34;;;;;;;23.27;16.83;;;17.40;99.90;;;;;;5011270;28;20029;-78
2024/02/22 09:38:59;;;;;;;34.20;17.00;;;17.40;99.90;;;;;;5011863;28;20026;-80
2024/02/22 09:41:26;;;;;;;24.83;15.60;;;17.40;99.90;;;;;;5006920;28;20039;-77
2024/02/22 09:43:53;;;;;;;20.02;14.63;;;17.40;99.90;;;;;;5005110;28;20029;-78
2024/02/22 09:46:19;;;;;;;29.25;16.33;;;17.30;99.90;;;;;;5008597;28;20486;-78
2024/02/22 09:48:45;;;;;;;24.57;15.63;;;17.40;99.90;;;;;;5003955;28;20023;-78
2024/02/22 09:51:14;;;;;;;22.50;14.57;;;17.50;99.90;;;;;;5009000;28;20344;-78
2024/02/22 09:53:40;;;;;;;23.55;14.10;;;17.80;99.90;;;;;;5009667;28;20079;-78
2024/02/22 09:56:09;;;;;;;27.07;14.77;;;17.80;99.90;;;;;;5009690;28;20120;-78
2024/02/22 09:58:35;;;;;;;19.60;13.90;;;18.00;99.90;;;;;;5010004;28;20034;-78
2024/02/22 10:01:01;;;;;;;18.63;13.77;;;18.50;99.90;;;;;;5007467;28;20033;-78
2024/02/22 10:03:37;;;;;;;21.70;13.90;;;18.70;99.90;;;;;;5013625;28;20646;-78
2024/02/22 10:06:04;;;;;;;19.42;13.00;;;19.00;99.90;;;;;;5008347;28;20148;-78
2024/02/22 10:08:29;;;;;;;17.92;11.82;;;18.70;99.90;;;;;;5010280;28;20054;-78
2024/02/22 10:11:08;;;;;;;20.67;12.87;;;18.60;99.90;;;;;;4996947;28;20056;-77
2024/02/22 10:13:34;;;;;;;15.57;11.82;;;18.80;99.90;;;;;;5000249;28;20041;-77
2024/02/22 10:16:10;;;;;;;15.57;10.88;;;18.80;99.90;;;;;;5010106;28;20010;-76
2024/02/22 10:18:37;;;;;;;17.33;10.88;;;18.70;99.90;;;;;;5002494;28;20388;-78
2024/02/22 10:21:14;;;;;;;16.70;11.38;;;18.60;99.90;;;;;;5003005;28;20241;-78
2024/02/22 10:23:39;;;;;;;19.20;10.57;;;18.50;99.90;;;;;;5008338;28;20100;-78
2024/02/22 10:26:05;;;;;;;22.17;10.73;;;18.40;99.90;;;;;;4997227;28;20674;-79
2024/02/22 10:28:31;;;;;;;17.43;10.77;;;18.30;99.90;;;;;;5005729;28;20144;-77
2024/02/22 10:31:04;;;;;;;16.10;10.73;;;18.20;99.90;;;;;;5004023;28;20030;-79
2024/02/22 10:33:30;;;;;;;14.77;9.88;;;18.10;99.90;;;;;;5001960;28;20041;-78
2024/02/22 10:36:03;;;;;;;16.77;9.65;;;18.10;99.90;;;;;;5010177;28;20084;-77
2024/02/22 10:38:30;;;;;;;22.70;9.90;;;18.10;99.90;;;;;;5007924;28;20662;-77
2024/02/22 10:40:56;;;;;;;16.88;9.45;;;18.10;99.90;;;;;;4996209;28;20476;-77
2024/02/22 10:43:25;;;;;;;16.77;10.35;;;18.00;99.90;;;;;;5007042;28;20451;-78
2024/02/22 10:45:57;;;;;;;13.27;8.90;;;18.00;99.90;;;;;;5009575;28;20072;-77
2024/02/22 10:48:25;;;;;;;13.95;9.02;;;17.90;99.90;;;;;;5010153;28;20490;-78
2024/02/22 10:50:52;;;;;;;11.30;8.95;;;17.90;99.90;;;;;;4998143;28;20826;-78
2024/02/22 10:53:20;;;;;;;15.00;8.68;;;17.80;99.90;;;;;;5012090;28;20034;-78
2024/02/22 10:55:50;;;;;;;14.98;8.98;;;17.70;99.90;;;;;;5013290;28;20038;-78
2024/02/22 10:58:20;;;;;;;10.52;7.35;;;17.70;99.90;;;;;;5006056;28;20110;-78
2024/02/22 11:00:47;;;;;;;13.32;8.60;;;17.60;99.90;;;;;;5012724;28;20143;-78
2024/02/22 11:03:15;;;;;;;11.43;7.82;;;17.50;99.90;;;;;;5000037;28;20022;-78
2024/02/22 11:05:41;;;;;;;22.30;10.75;;;17.50;99.90;;;;;;5006569;28;20045;-78
2024/02/22 11:08:06;;;;;;;9.73;7.97;;;17.40;99.90;;;;;;5013137;28;20050;-78
2024/02/22 11:10:32;;;;;;;49.30;25.20;;;17.40;99.90;;;;;;5010816;28;20091;-77
2024/02/22 11:13:03;;;;;;;53.43;28.47;;;17.40;99.90;;;;;;5002341;28;20030;-76
2024/02/22 11:15:35;;;;;;;34.95;20.38;;;17.40;99.90;;;;;;5000607;28;20056;-77
2024/02/22 11:18:01;;;;;;;34.15;17.70;;;17.40;99.90;;;;;;5004942;28;20387;-77
2024/02/22 11:20:34;;;;;;;28.10;16.57;;;17.30;99.90;;;;;;5009306;28;20498;-77
2024/02/22 11:23:15;;;;;;;23.60;14.57;;;17.40;99.90;;;;;;5013074;28;20467;-77
2024/02/22 11:25:41;;;;;;;24.00;14.18;;;17.40;99.90;;;;;;5011379;28;20026;-77
2024/02/22 11:28:09;;;;;;;25.30;13.68;;;17.40;99.90;;;;;;5012308;28;20160;-78
2024/02/22 11:30:35;;;;;;;23.17;13.35;;;17.40;99.90;;;;;;5010795;28;20563;-77
2024/02/22 11:33:01;;;;;;;26.67;12.57;;;17.40;99.90;;;;;;5011969;28;20136;-77
2024/02/22 11:35:28;;;;;;;18.95;9.80;;;17.40;99.90;;;;;;5011163;28;20049;-78
2024/02/22 11:38:02;;;;;;;33.22;23.67;;;17.40;99.90;;;;;;5011762;28;20080;-78
2024/02/22 11:40:32;;;;;;;28.55;15.95;;;17.40;99.90;;;;;;5012801;28;20062;-77
2024/02/22 11:42:59;;;;;;;37.28;19.45;;;17.40;99.90;;;;;;5013191;28;20083;-77
2024/02/22 11:45:25;;;;;;;34.50;17.88;;;17.40;99.90;;;;;;5000325;28;20476;-77
2024/02/22 11:47:51;;;;;;;38.72;18.38;;;17.50;99.90;;;;;;5002324;28;20037;-78
2024/02/22 11:50:17;;;;;;;39.13;18.25;;;17.60;99.90;;;;;;5012832;28;20037;-76
2024/02/22 11:52:47;;;;;;;31.83;17.75;;;17.60;99.90;;;;;;5008242;28;20026;-76
2024/02/22 11:55:13;;;;;;;36.50;16.45;;;17.60;99.90;;;;;;5027989;28;20029;-77
2024/02/22 11:57:39;;;;;;;36.33;17.17;;;17.70;99.90;;;;;;5011292;28;20069;-76
2024/02/22 12:00:06;;;;;;;34.40;15.93;;;17.60;99.90;;;;;;5010784;28;20018;-76
2024/02/22 12:02:36;;;;;;;25.83;14.38;;;17.70;99.90;;;;;;5009818;28;20030;-77
2024/02/22 12:05:04;;;;;;;30.70;15.85;;;17.70;99.90;;;;;;5016610;28;20037;-76
2024/02/22 12:07:31;;;;;;;30.70;14.27;;;17.60;99.90;;;;;;5017173;28;20109;-76
2024/02/22 12:09:58;;;;;;;25.10;13.10;;;17.60;99.90;;;;;;5019552;28;20596;-77
2024/02/22 12:12:25;;;;;;;22.17;11.57;;;17.50;99.90;;;;;;5018284;28;20086;-77
2024/02/22 12:14:58;;;;;;;;;;;17.40;99.90;;;;;;5018339;28;20033;-77
2024/02/22 12:17:31;;;;;;;34.75;15.00;;;17.40;99.90;;;;;;5018403;28;19913;-77
2024/02/22 12:19:58;;;;;;;30.77;15.98;;;17.30;99.90;;;;;;5006451;28;20030;-77
2024/02/22 12:22:26;;;;;;;31.42;15.30;;;17.40;99.90;;;;;;5016506;28;20030;-78
2024/02/22 12:24:53;;;;;;;30.60;15.18;;;17.40;99.90;;;;;;4998172;28;20035;-76
2024/02/22 12:27:18;;;;;;;33.08;14.98;;;17.40;99.90;;;;;;5013165;28;20026;-78
2024/02/22 12:29:49;;;;;;;34.83;14.53;;;17.40;99.90;;;;;;5013745;28;20530;-77
2024/02/22 12:32:15;;;;;;;31.08;13.18;;;17.40;99.90;;;;;;5012519;28;20132;-78
2024/02/22 12:34:40;;;;;;;30.97;13.73;;;17.40;99.90;;;;;;5011881;28;20503;-79
2024/02/22 12:37:06;;;;;;;30.97;14.30;;;17.40;99.90;;;;;;5013926;28;20467;-79
2024/02/22 12:39:32;;;;;;;26.37;13.77;;;17.40;99.90;;;;;;5012171;28;20376;-78